Grand Prairie, TX (75050)

6:45 AM CST on December 10, 2016 (GMT -0600)
Grand Prairie High School | | Change Station

Elev 528 ft 32.75 °N, 97.00 °W | Updated 22 seconds ago

Overcast
Overcast
39.0 °F
Feels Like 34 °F
N
6.5
Wind Variable Wind from SE
Gusts 9.8 mph

Today
High -- | Low -- °F
--% Chance of Precip.
Yesterday
High -- | Low -- °F
Precip. -- in
Pressure 30.47 in
Visibility 10.0 miles
Clouds Mostly Cloudy 6000 ft
Windchill 34 °F
Dew Point 28 °F
Humidity 65%
Rainfall 0.00 in
Snow Depth Not available.
7:19 AM 5:22 PM
Waxing Gibbous, 83% visible
METAR KGPM 101135Z AUTO 13004KT 10SM BKN060 03/M05 A3047 RMK AO2 T00301048
Pressure 30.47 in
Visibility 10.0 miles
Clouds Mostly Cloudy 6000 ft
Windchill 34 °F
Dew Point 28 °F
Humidity 65%
Rainfall 0.00 in
Snow Depth Not available.
7:19 AM 5:22 PM
Waxing Gibbous, 83% visible
METAR KGPM 101135Z AUTO 13004KT 10SM BKN060 03/M05 A3047 RMK AO2 T00301048

10-Day Weather Forecast

Almanac

Astronomy

Dec. 10, 2016 Rise Set
Actual Time
Civil Twilight
Nautical Twilight
Astronomical Twilight
Moon
Length of Visible Light
Length of Day
Tomorrow will be .
, % of the Moon is Illuminated

Today's Extremes

State Highs State Lows

Community

WunderPhotos

Upload Photos

1,956,540 photos uploaded!

WunderBlog® & News

Nearby

Air Quality

  Air Quality AQ Index Pollutant
Not available.

Snow Depth

Station Depth Elevation

Earthquake Activity

City Distance Mag. Time & Date
Minimum magnitude displayed is 2.5.

Coastal Water Temperatures

Place Temperature

Stations

Nearby Weather Stations

Station Location Temp. Windchill Dew Point Humidity Wind Precip. Elev Updated Type
                   

Watches & Warnings

There are currently no watches in effect.